Impacts TAF Board INFO
FOR SITUATIONAL AWARENESS. NOT TO BE USED FOR FLIGHT PLANNING PURPOSES.
IDs:

KCLT - Charlotte/Douglas In, NC, US

Issued at 2339 UTC 17 Aug 2018
Updated at 0128 UTC 18 Aug 2018
Potential Impact None Slight Moderate High
Time<<19/02Z 19/03Z 19/04Z 19/05Z 19/06Z 19/07Z 19/08Z 19/09Z 19/10Z 19/11Z 19/12Z 19/13Z 19/14Z
Type PRVL PRVL PRVL PRVL
VIS >6 >6 >6 >6
CIG 50 50 50 50
Cover BKN BKN BKN BKN
FltCat VFR VFR VFR VFR
WX -- -- -- --
WDir 230 230 230 230
WSpd 9 9 9 9
WGst -- -- -- --

Raw TAF
KCLT 172339Z 1800/1906 22006KT P6SM SCT045 BKN250
  FM180400 21007KT P6SM SCT090
  FM181000 22006KT P6SM SCT015 BKN070
  FM181400 23009KT P6SM BKN050
  PROB30 1819/1824 4SM -TSRA OVC025CB


METAR Board
Radar Display
Forecast Discussion

FOR SITUATIONAL AWARENESS. NOT TO BE USED FOR FLIGHT PLANNING PURPOSES.